createdAt,value
2022-12-11T00:00:30.989Z,90.50
2022-12-11T00:02:58.283Z,85.47
2022-12-11T00:05:25.599Z,96.25
2022-12-11T00:07:52.879Z,96.25
2022-12-11T00:10:20.106Z,84.57
2022-12-11T00:12:47.631Z,91.80
2022-12-11T00:15:14.828Z,102.78
2022-12-11T00:17:44.546Z,94.65
2022-12-11T00:20:12.206Z,89.00
2022-12-11T00:22:39.480Z,70.20
2022-12-11T00:25:06.913Z,87.85
2022-12-11T00:27:34.361Z,85.47
2022-12-11T00:30:01.973Z,86.68
2022-12-11T00:32:36.225Z,92.47
2022-12-11T00:35:05.479Z,74.13
2022-12-11T00:37:32.806Z,89.18
2022-12-11T00:40:00.231Z,95.30
2022-12-11T00:42:27.750Z,87.35
2022-12-11T00:44:56.453Z,88.45
2022-12-11T00:47:23.813Z,104.43
2022-12-11T00:49:51.046Z,106.78
2022-12-11T00:52:18.419Z,102.70
2022-12-11T00:54:46.208Z,90.22
2022-12-11T00:57:13.702Z,106.70
2022-12-11T00:59:41.169Z,113.93
2022-12-11T01:02:08.666Z,94.80
2022-12-11T01:04:36.750Z,107.05
2022-12-11T01:07:04.276Z,116.43
2022-12-11T01:09:50.092Z,111.10
2022-12-11T01:12:17.208Z,110.40
2022-12-11T01:14:44.351Z,104.68
2022-12-11T01:17:11.947Z,102.32
2022-12-11T01:19:39.121Z,107.22
2022-12-11T01:22:06.346Z,110.55
2022-12-11T01:24:34.009Z,104.43
2022-12-11T01:27:01.178Z,121.60
2022-12-11T01:29:28.425Z,127.18
2022-12-11T01:31:55.631Z,120.03
2022-12-11T01:34:22.876Z,102.82
2022-12-11T01:36:52.462Z,107.17
2022-12-11T01:39:19.648Z,101.78
2022-12-11T01:41:46.962Z,101.00
2022-12-11T01:44:17.164Z,90.50
2022-12-11T01:46:44.493Z,103.30
2022-12-11T01:49:13.382Z,92.23
2022-12-11T01:51:42.288Z,85.40
2022-12-11T01:54:12.491Z,82.28
2022-12-11T01:56:40.876Z,90.28
2022-12-11T01:59:08.757Z,89.43
2022-12-11T02:01:38.268Z,88.93
2022-12-11T02:04:05.767Z,86.15
2022-12-11T02:06:34.752Z,77.05
2022-12-11T02:09:02.406Z,70.53
2022-12-11T02:11:35.870Z,81.38
2022-12-11T02:14:25.031Z,86.07
2022-12-11T02:16:57.356Z,74.20
2022-12-11T02:19:27.826Z,75.90
2022-12-11T02:21:56.456Z,80.85
2022-12-11T02:24:24.018Z,70.85
2022-12-11T02:27:10.236Z,75.93
2022-12-11T02:30:07.086Z,77.43
2022-12-11T02:32:44.432Z,73.20
2022-12-11T02:35:26.384Z,70.50
2022-12-11T02:37:57.505Z,72.47
2022-12-11T02:40:27.258Z,83.67
2022-12-11T02:42:57.577Z,73.47
2022-12-11T02:45:25.258Z,73.13
2022-12-11T02:47:53.314Z,73.18
2022-12-11T02:50:22.006Z,65.05
2022-12-11T02:52:50.891Z,65.57
2022-12-11T02:55:18.686Z,66.50
2022-12-11T02:58:21.946Z,76.43
2022-12-11T03:00:49.442Z,66.10
2022-12-11T03:03:16.957Z,60.83
2022-12-11T03:05:46.520Z,65.50
2022-12-11T03:08:17.482Z,65.75
2022-12-11T03:10:45.321Z,61.50
2022-12-11T03:13:14.233Z,58.83
2022-12-11T03:15:47.358Z,36.88
2022-12-11T03:18:24.648Z,53.33
2022-12-11T03:20:59.255Z,61.58
2022-12-11T03:23:32.874Z,50.67
2022-12-11T03:26:02.290Z,52.05
2022-12-11T03:28:39.409Z,54.10
2022-12-11T03:31:10.528Z,47.17
2022-12-11T03:33:42.825Z,44.67
2022-12-11T03:36:20.372Z,45.63
2022-12-11T03:38:49.704Z,40.47
2022-12-11T03:41:18.963Z,44.05
2022-12-11T03:43:46.667Z,46.00
2022-12-11T03:46:14.638Z,46.30
2022-12-11T03:48:44.889Z,45.13
2022-12-11T03:51:12.172Z,47.08
2022-12-11T03:53:40.217Z,43.28
2022-12-11T03:56:09.404Z,39.73
2022-12-11T03:58:37.287Z,41.10
2022-12-11T04:01:04.858Z,41.42
2022-12-11T04:03:32.523Z,39.83
2022-12-11T04:05:59.974Z,41.97
2022-12-11T04:08:27.908Z,39.33
2022-12-11T04:11:13.998Z,40.53
2022-12-11T04:13:42.004Z,39.15
2022-12-11T04:16:09.528Z,33.50
2022-12-11T04:18:55.385Z,39.33
2022-12-11T04:21:41.138Z,36.97
2022-12-11T04:24:17.673Z,35.45
2022-12-11T04:26:46.192Z,31.83
2022-12-11T04:29:14.355Z,31.42
2022-12-11T04:31:41.879Z,34.58
2022-12-11T04:34:09.251Z,34.47
2022-12-11T04:36:36.628Z,32.25
2022-12-11T04:39:04.454Z,34.00
2022-12-11T04:41:32.082Z,32.90
2022-12-11T04:43:59.471Z,30.10
2022-12-11T04:46:27.042Z,31.73
2022-12-11T04:48:57.721Z,31.70
2022-12-11T04:51:25.208Z,29.15
2022-12-11T04:53:52.495Z,31.45
2022-12-11T04:56:20.080Z,28.95
2022-12-11T04:58:47.780Z,32.83
2022-12-11T05:01:17.836Z,32.30
2022-12-11T05:03:45.524Z,28.90
2022-12-11T05:06:13.331Z,31.45
2022-12-11T05:08:41.979Z,35.60
2022-12-11T05:11:11.189Z,29.80
2022-12-11T05:13:38.783Z,29.45
2022-12-11T05:16:06.949Z,29.27
2022-12-11T05:18:34.668Z,29.60
2022-12-11T05:21:03.316Z,32.08
2022-12-11T05:23:30.999Z,32.57
2022-12-11T05:26:02.850Z,32.22
2022-12-11T05:28:31.835Z,30.98
2022-12-11T05:31:00.209Z,29.67
2022-12-11T05:33:27.981Z,33.17
2022-12-11T05:35:55.310Z,36.63
2022-12-11T05:38:22.770Z,34.72
2022-12-11T05:40:57.907Z,35.50
2022-12-11T05:43:25.354Z,33.80
2022-12-11T05:45:52.605Z,33.22
2022-12-11T05:48:19.926Z,31.00
2022-12-11T05:50:56.862Z,32.45
2022-12-11T05:53:24.423Z,33.13
2022-12-11T05:55:51.717Z,32.47
2022-12-11T05:58:19.337Z,36.40
2022-12-11T06:00:46.734Z,34.17
2022-12-11T06:03:14.342Z,31.65
2022-12-11T06:05:42.690Z,31.55
2022-12-11T06:08:10.247Z,36.20
2022-12-11T06:10:37.594Z,39.58
2022-12-11T06:13:04.991Z,33.60
2022-12-11T06:15:33.317Z,33.92
2022-12-11T06:18:00.657Z,33.20
2022-12-11T06:20:27.974Z,33.72
2022-12-11T06:22:55.282Z,40.55
2022-12-11T06:25:22.575Z,34.60
2022-12-11T06:27:51.004Z,34.50
2022-12-11T06:30:18.411Z,34.55
2022-12-11T06:32:45.708Z,40.20
2022-12-11T06:35:13.316Z,39.15
2022-12-11T06:37:40.878Z,36.70
2022-12-11T06:40:09.180Z,40.13
2022-12-11T06:42:36.859Z,38.95
2022-12-11T06:45:04.314Z,37.35
2022-12-11T06:47:32.441Z,39.35
2022-12-11T06:49:59.864Z,34.10
2022-12-11T06:52:27.933Z,40.25
2022-12-11T06:54:55.870Z,36.97
2022-12-11T06:57:23.571Z,34.10
2022-12-11T06:59:50.745Z,35.95
2022-12-11T07:02:19.205Z,32.73
2022-12-11T07:04:49.323Z,30.70
2022-12-11T07:07:20.766Z,29.90
2022-12-11T07:09:48.221Z,35.47
2022-12-11T07:12:15.575Z,30.92
2022-12-11T07:14:42.929Z,35.13
2022-12-11T07:17:10.287Z,37.40
2022-12-11T07:19:37.678Z,33.13
2022-12-11T07:22:05.103Z,36.45
2022-12-11T07:24:32.657Z,33.35
2022-12-11T07:26:59.803Z,33.43
2022-12-11T07:29:27.059Z,32.25
2022-12-11T07:31:54.505Z,34.47
2022-12-11T07:34:21.979Z,32.95
2022-12-11T07:36:49.208Z,34.38
2022-12-11T07:39:16.314Z,34.30
2022-12-11T07:41:43.455Z,31.65
2022-12-11T07:44:10.632Z,34.83
2022-12-11T07:46:37.800Z,35.08
2022-12-11T07:49:06.116Z,36.53
2022-12-11T07:51:35.584Z,37.00
2022-12-11T07:54:04.189Z,34.20
2022-12-11T07:56:32.677Z,36.55
2022-12-11T07:59:04.928Z,32.25
2022-12-11T08:01:35.531Z,35.15
2022-12-11T08:04:03.473Z,30.83
2022-12-11T08:06:31.897Z,31.83
2022-12-11T08:09:00.427Z,25.92
2022-12-11T08:11:27.849Z,31.88
2022-12-11T08:13:55.077Z,27.77
2022-12-11T08:16:22.468Z,31.10
2022-12-11T08:18:49.920Z,32.10
2022-12-11T08:21:21.551Z,37.25
2022-12-11T08:23:49.140Z,32.13
2022-12-11T08:26:23.423Z,35.67
2022-12-11T08:28:50.548Z,30.37
2022-12-11T08:31:18.591Z,33.60
2022-12-11T08:33:46.399Z,32.00
2022-12-11T08:36:15.062Z,31.55
2022-12-11T08:38:42.356Z,33.17
2022-12-11T08:41:13.561Z,35.27
2022-12-11T08:43:41.044Z,30.33
2022-12-11T08:46:09.119Z,32.72
2022-12-11T08:48:37.513Z,34.30
2022-12-11T08:51:09.075Z,33.92
2022-12-11T08:53:36.493Z,30.53
2022-12-11T08:56:04.923Z,30.52
2022-12-11T08:58:32.172Z,31.83
2022-12-11T09:00:59.672Z,31.75
2022-12-11T09:03:27.496Z,31.23
2022-12-11T09:05:54.817Z,29.73
2022-12-11T09:08:22.255Z,29.63
2022-12-11T09:10:49.821Z,30.33
2022-12-11T09:13:17.254Z,32.85
2022-12-11T09:15:44.795Z,34.92
2022-12-11T09:18:12.156Z,30.67
2022-12-11T09:20:39.490Z,30.00
2022-12-11T09:23:06.890Z,29.30
2022-12-11T09:25:34.160Z,29.88
2022-12-11T09:28:01.514Z,30.63
2022-12-11T09:30:28.766Z,30.30
2022-12-11T09:32:56.000Z,31.17
2022-12-11T09:35:23.327Z,31.25
2022-12-11T09:37:50.724Z,31.50
2022-12-11T09:40:17.950Z,30.33
2022-12-11T09:42:51.368Z,33.47
2022-12-11T09:45:18.665Z,32.70
2022-12-11T09:47:50.203Z,28.02
2022-12-11T09:50:23.378Z,33.85
2022-12-11T09:52:50.620Z,29.05
2022-12-11T09:55:20.022Z,28.33
2022-12-11T09:58:05.635Z,30.67
2022-12-11T10:00:39.035Z,30.30
2022-12-11T10:03:27.033Z,27.73
2022-12-11T10:06:04.585Z,26.27
2022-12-11T10:08:51.205Z,28.10
2022-12-11T10:11:18.366Z,25.85
2022-12-11T10:13:57.906Z,29.33
2022-12-11T10:16:34.044Z,24.08
2022-12-11T10:19:01.581Z,25.60
2022-12-11T10:21:33.045Z,27.77
2022-12-11T10:24:01.793Z,24.38
2022-12-11T10:26:29.700Z,28.60
2022-12-11T10:29:01.243Z,27.23
2022-12-11T10:31:34.162Z,25.48
2022-12-11T10:34:02.704Z,25.77
2022-12-11T10:36:31.828Z,29.17
2022-12-11T10:38:59.886Z,24.52
2022-12-11T10:41:36.342Z,27.10
2022-12-11T10:44:15.486Z,23.65
2022-12-11T10:46:42.950Z,24.07
2022-12-11T10:49:22.143Z,26.90
2022-12-11T10:51:50.538Z,26.65
2022-12-11T10:54:32.355Z,23.55
2022-12-11T10:57:01.479Z,23.73
2022-12-11T10:59:31.783Z,23.17
2022-12-11T11:01:59.184Z,25.00
2022-12-11T11:04:47.760Z,21.42
2022-12-11T11:07:17.351Z,25.80
2022-12-11T11:09:46.086Z,22.88
2022-12-11T11:12:24.655Z,25.07
2022-12-11T11:15:01.967Z,27.33
2022-12-11T11:17:33.794Z,22.88
2022-12-11T11:20:05.772Z,23.73
2022-12-11T11:22:33.333Z,22.70
2022-12-11T11:25:00.580Z,23.93
2022-12-11T11:27:51.020Z,24.15
2022-12-11T11:30:20.187Z,22.55
2022-12-11T11:32:47.593Z,22.52
2022-12-11T11:35:14.836Z,27.75
2022-12-11T11:37:45.702Z,23.33
2022-12-11T11:40:23.633Z,21.52
2022-12-11T11:42:57.353Z,23.30
2022-12-11T11:45:32.597Z,24.20
2022-12-11T11:48:09.447Z,25.05
2022-12-11T11:50:41.701Z,20.47
2022-12-11T11:53:14.925Z,23.30
2022-12-11T11:55:53.569Z,24.80
2022-12-11T11:58:23.055Z,23.23
2022-12-11T12:00:50.598Z,24.77
2022-12-11T12:03:19.967Z,24.33
2022-12-11T12:06:01.946Z,26.73
2022-12-11T12:08:42.603Z,27.30
2022-12-11T12:11:19.037Z,23.13
2022-12-11T12:13:51.725Z,26.23
2022-12-11T12:16:55.116Z,25.30
2022-12-11T12:19:22.342Z,25.85
2022-12-11T12:21:52.073Z,27.13
2022-12-11T12:24:26.566Z,24.33
2022-12-11T12:26:57.813Z,27.20
2022-12-11T12:29:37.786Z,27.07
2022-12-11T12:32:28.517Z,28.75
2022-12-11T12:35:07.680Z,26.58
2022-12-11T12:37:46.909Z,27.05
2022-12-11T12:40:17.155Z,28.23
2022-12-11T12:43:07.490Z,25.27
2022-12-11T12:45:37.984Z,28.83
2022-12-11T12:48:05.753Z,30.17
2022-12-11T12:50:38.074Z,27.90
2022-12-11T12:53:06.783Z,30.42
2022-12-11T12:55:35.844Z,30.53
2022-12-11T12:58:05.729Z,32.70
2022-12-11T13:00:37.882Z,27.98
2022-12-11T13:03:14.659Z,31.13
2022-12-11T13:05:43.430Z,33.08
2022-12-11T13:08:11.854Z,29.33
2022-12-11T13:10:41.127Z,33.30
2022-12-11T13:13:28.255Z,31.77
2022-12-11T13:16:06.117Z,34.83
2022-12-11T13:18:38.517Z,31.27
2022-12-11T13:21:26.010Z,32.80
2022-12-11T13:23:53.481Z,30.73
2022-12-11T13:26:32.030Z,27.83
2022-12-11T13:28:59.612Z,30.25
2022-12-11T13:31:35.892Z,31.52
2022-12-11T13:34:15.579Z,34.53
2022-12-11T13:36:47.282Z,32.05
2022-12-11T13:39:19.398Z,32.40
2022-12-11T13:41:48.697Z,34.15
2022-12-11T13:44:39.700Z,31.38
2022-12-11T13:47:08.294Z,33.70
2022-12-11T13:49:37.204Z,30.00
2022-12-11T13:52:05.657Z,31.80
2022-12-11T13:54:33.815Z,31.60
2022-12-11T13:57:03.591Z,32.22
2022-12-11T13:59:36.116Z,35.80
2022-12-11T14:02:15.958Z,33.75
2022-12-11T14:04:43.593Z,35.75
2022-12-11T14:07:11.623Z,36.78
2022-12-11T14:09:40.948Z,28.80
2022-12-11T14:12:08.577Z,32.17
2022-12-11T14:14:42.031Z,31.92
2022-12-11T14:17:15.339Z,29.25
2022-12-11T14:19:47.688Z,28.88
2022-12-11T14:22:22.821Z,29.67
2022-12-11T14:24:51.696Z,30.77
2022-12-11T14:27:19.719Z,32.45
2022-12-11T14:29:47.204Z,33.65
2022-12-11T14:32:19.565Z,33.13
2022-12-11T14:34:48.256Z,33.47
2022-12-11T14:37:16.538Z,30.10
2022-12-11T14:39:52.860Z,30.58
2022-12-11T14:42:25.473Z,31.23
2022-12-11T14:44:55.435Z,30.83
2022-12-11T14:47:28.138Z,33.88
2022-12-11T14:50:04.586Z,30.67
2022-12-11T14:52:37.561Z,29.98
2022-12-11T14:55:10.525Z,32.25
2022-12-11T14:57:40.275Z,31.08
2022-12-11T15:00:08.144Z,33.60
2022-12-11T15:02:37.026Z,36.13
2022-12-11T15:05:04.262Z,32.80
2022-12-11T15:07:31.887Z,31.08
2022-12-11T15:09:59.263Z,33.03
2022-12-11T15:12:26.701Z,32.42
2022-12-11T15:14:55.418Z,28.90
2022-12-11T15:17:23.743Z,38.13
2022-12-11T15:19:52.685Z,31.75
2022-12-11T15:22:20.843Z,32.28
2022-12-11T15:24:51.338Z,30.20
2022-12-11T15:27:38.595Z,35.90
2022-12-11T15:30:29.204Z,34.33
2022-12-11T15:33:22.951Z,32.63
2022-12-11T15:36:16.588Z,31.83
2022-12-11T15:38:43.734Z,24.98
2022-12-11T15:41:15.468Z,29.50
2022-12-11T15:43:43.233Z,30.88
2022-12-11T15:46:10.614Z,27.95
2022-12-11T15:48:37.989Z,31.13
2022-12-11T15:51:05.362Z,30.25
2022-12-11T15:53:32.613Z,34.67
2022-12-11T15:56:02.427Z,29.38
2022-12-11T15:58:30.232Z,28.85
2022-12-11T16:00:57.948Z,30.60
2022-12-11T16:03:25.714Z,31.70
2022-12-11T16:05:53.860Z,31.43
2022-12-11T16:08:22.795Z,31.33
2022-12-11T16:10:51.770Z,32.65
2022-12-11T16:13:19.804Z,31.25
2022-12-11T16:15:48.286Z,30.33
2022-12-11T16:18:17.286Z,27.97
2022-12-11T16:20:45.528Z,27.73
2022-12-11T16:23:13.527Z,28.73
2022-12-11T16:25:41.498Z,26.33
2022-12-11T16:28:09.266Z,26.65
2022-12-11T16:30:37.512Z,23.70
2022-12-11T16:33:11.807Z,22.27
2022-12-11T16:35:40.292Z,27.73
2022-12-11T16:38:11.006Z,24.77
2022-12-11T16:40:38.556Z,26.00
2022-12-11T16:43:06.283Z,28.43
2022-12-11T16:45:34.001Z,25.83
2022-12-11T16:48:05.048Z,27.58
2022-12-11T16:50:32.685Z,26.70
2022-12-11T16:53:00.433Z,28.90
2022-12-11T16:55:27.905Z,25.77
2022-12-11T16:57:55.448Z,28.17
2022-12-11T17:00:23.130Z,28.52
2022-12-11T17:02:53.799Z,28.55
2022-12-11T17:05:22.701Z,23.33
2022-12-11T17:07:50.795Z,25.77
2022-12-11T17:10:18.355Z,29.77
2022-12-11T17:12:45.683Z,27.58
2022-12-11T17:15:13.408Z,27.27
2022-12-11T17:17:43.239Z,26.00
2022-12-11T17:20:11.474Z,27.23
2022-12-11T17:22:38.983Z,24.80
2022-12-11T17:25:06.348Z,24.10
2022-12-11T17:27:33.464Z,26.65
2022-12-11T17:30:00.687Z,27.30
2022-12-11T17:32:27.833Z,30.90
2022-12-11T17:34:54.985Z,31.15
2022-12-11T17:37:22.138Z,28.67
2022-12-11T17:39:49.424Z,25.08
2022-12-11T17:42:16.607Z,28.48
2022-12-11T17:44:45.577Z,28.10
2022-12-11T17:47:12.706Z,29.00
2022-12-11T17:49:40.617Z,25.77
2022-12-11T17:52:08.048Z,24.55
2022-12-11T17:54:35.262Z,28.05
2022-12-11T17:57:02.496Z,25.87
2022-12-11T17:59:29.725Z,26.60
2022-12-11T18:01:57.625Z,25.60
2022-12-11T18:04:24.943Z,28.88
2022-12-11T18:06:52.143Z,24.70
2022-12-11T18:09:19.390Z,28.00
2022-12-11T18:11:46.637Z,25.52
2022-12-11T18:14:17.206Z,27.00
2022-12-11T18:16:44.807Z,24.00
2022-12-11T18:19:11.938Z,25.27
2022-12-11T18:21:42.818Z,25.77
2022-12-11T18:24:11.052Z,27.15
2022-12-11T18:26:38.684Z,25.77
2022-12-11T18:29:06.892Z,25.13
2022-12-11T18:31:38.857Z,25.30
2022-12-11T18:34:09.387Z,24.40
2022-12-11T18:36:36.558Z,25.55
2022-12-11T18:39:03.706Z,28.00
2022-12-11T18:41:30.846Z,24.08
2022-12-11T18:43:57.999Z,25.40
2022-12-11T18:46:25.134Z,24.20
2022-12-11T18:48:52.522Z,25.40
2022-12-11T18:51:22.756Z,22.92
2022-12-11T18:53:50.055Z,26.50
2022-12-11T18:56:18.380Z,24.73
2022-12-11T18:58:46.247Z,26.83
2022-12-11T19:01:14.043Z,25.23
2022-12-11T19:03:41.460Z,27.33
2022-12-11T19:06:10.029Z,25.17
2022-12-11T19:08:37.884Z,24.33
2022-12-11T19:11:05.591Z,21.20
2022-12-11T19:13:33.038Z,30.80
2022-12-11T19:16:00.763Z,35.78
2022-12-11T19:18:28.539Z,27.80
2022-12-11T19:21:06.476Z,38.10
2022-12-11T19:23:36.042Z,28.17
2022-12-11T19:26:03.727Z,23.02
2022-12-11T19:28:31.349Z,25.58
2022-12-11T19:30:59.364Z,23.70
2022-12-11T19:33:26.787Z,23.73
2022-12-11T19:36:24.038Z,25.10
2022-12-11T19:38:51.849Z,26.40
2022-12-11T19:41:20.490Z,25.90
2022-12-11T19:43:48.072Z,25.42
2022-12-11T19:46:15.933Z,22.83
2022-12-11T19:48:43.451Z,20.60
2022-12-11T19:51:12.568Z,23.25
2022-12-11T19:53:40.260Z,24.83
2022-12-11T19:56:08.219Z,23.48
2022-12-11T19:58:35.922Z,21.98
2022-12-11T20:01:03.868Z,19.00
2022-12-11T20:03:31.523Z,23.13
2022-12-11T20:06:06.443Z,22.15
2022-12-11T20:08:49.488Z,19.48
2022-12-11T20:11:18.708Z,22.50
2022-12-11T20:13:47.639Z,23.00
2022-12-11T20:16:15.796Z,24.10
2022-12-11T20:18:43.444Z,22.55
2022-12-11T20:21:13.421Z,21.95
2022-12-11T20:23:40.829Z,21.85
2022-12-11T20:26:12.681Z,25.47
2022-12-11T20:28:40.317Z,21.63
2022-12-11T20:31:08.689Z,27.17
2022-12-11T20:33:35.921Z,22.85
2022-12-11T20:36:07.191Z,21.27
2022-12-11T20:38:34.763Z,23.80
2022-12-11T20:41:02.084Z,22.17
2022-12-11T20:43:29.357Z,23.15
2022-12-11T20:45:56.690Z,24.75
2022-12-11T20:48:24.278Z,22.08
2022-12-11T20:50:51.416Z,21.30
2022-12-11T20:53:18.613Z,21.88
2022-12-11T20:55:45.785Z,23.00
2022-12-11T20:58:12.992Z,22.73
2022-12-11T21:00:40.931Z,21.63
2022-12-11T21:03:08.209Z,25.87
2022-12-11T21:05:41.890Z,21.85
2022-12-11T21:08:10.145Z,24.17
2022-12-11T21:10:38.026Z,26.05
2022-12-11T21:13:05.614Z,26.55
2022-12-11T21:15:33.128Z,24.63
2022-12-11T21:18:00.429Z,25.70
2022-12-11T21:20:27.735Z,23.25
2022-12-11T21:22:57.655Z,20.70
2022-12-11T21:25:25.999Z,22.05
2022-12-11T21:27:53.536Z,20.20
2022-12-11T21:30:20.837Z,23.30
2022-12-11T21:32:48.104Z,20.17
2022-12-11T21:35:16.081Z,20.40
2022-12-11T21:37:43.506Z,24.10
2022-12-11T21:40:10.964Z,20.83
2022-12-11T21:42:38.255Z,21.70
2022-12-11T21:47:53.396Z,24.17
2022-12-11T21:50:21.369Z,24.67
2022-12-11T21:52:48.794Z,21.10
2022-12-11T21:55:18.246Z,24.15
2022-12-11T21:57:45.665Z,22.00
2022-12-11T22:00:13.623Z,20.80
2022-12-11T22:02:41.520Z,21.60
2022-12-11T22:05:09.456Z,21.57
2022-12-11T22:07:36.958Z,22.92
2022-12-11T22:10:05.246Z,22.23
2022-12-11T22:12:32.793Z,22.77
2022-12-11T22:15:00.329Z,22.38
2022-12-11T22:17:27.721Z,21.87
2022-12-11T22:19:55.114Z,21.55
2022-12-11T22:22:22.589Z,23.90
2022-12-11T22:24:50.869Z,27.63
2022-12-11T22:27:23.433Z,22.83
2022-12-11T22:29:51.088Z,22.13
2022-12-11T22:32:18.254Z,24.25
2022-12-11T22:34:45.443Z,26.83
2022-12-11T22:37:12.662Z,23.60
2022-12-11T22:39:39.930Z,21.45
2022-12-11T22:42:07.130Z,23.87
2022-12-11T22:44:34.375Z,25.92
2022-12-11T22:47:01.631Z,25.50
2022-12-11T22:49:29.091Z,22.15
2022-12-11T22:51:57.606Z,21.70
2022-12-11T22:54:25.302Z,24.63
2022-12-11T22:56:52.651Z,25.23
2022-12-11T22:59:20.038Z,22.80
2022-12-11T23:01:47.374Z,27.40
2022-12-11T23:04:14.679Z,24.80
2022-12-11T23:06:42.339Z,25.33
2022-12-11T23:09:09.906Z,25.30
2022-12-11T23:11:38.106Z,22.80
2022-12-11T23:14:07.279Z,24.27
2022-12-11T23:16:34.483Z,28.13
2022-12-11T23:19:01.851Z,24.27
2022-12-11T23:21:29.478Z,25.77
2022-12-11T23:23:56.810Z,25.30
2022-12-11T23:26:24.441Z,25.85
2022-12-11T23:28:51.586Z,23.95
2022-12-11T23:31:18.857Z,24.50
2022-12-11T23:33:46.233Z,25.50
2022-12-11T23:36:13.752Z,28.20
2022-12-11T23:38:41.496Z,22.67
2022-12-11T23:41:09.868Z,25.85
2022-12-11T23:43:38.582Z,21.43
2022-12-11T23:46:07.835Z,26.35
2022-12-11T23:48:35.074Z,26.27
2022-12-11T23:51:02.704Z,26.23
2022-12-11T23:53:29.810Z,25.30
2022-12-11T23:55:57.286Z,24.60
2022-12-11T23:58:24.383Z,30.17
